Terminal Aerodrome Forecast
Issued by NWS Chicago, IL

Home | Current Version | Previous Version | Graphics & Text | Print | Product List | Glossary On
Versions: 1 2 3 4 5 6 7 8 9 10 11 12 13 14 15 16 17 18 19 20 21 22 23 24 25 26 27
000
FTUS43 KLOT 240537
TAFRFD
TAF
KRFD 240537Z 2406/2506 16007KT P6SM FEW045 OVC200 WS015/21050KT
     FM241400 20016G24KT P6SM BKN250
     FM241700 21020G30KT P6SM FEW035 SCT250
     FM242100 23013G21KT P6SM BKN040
     FM250200 06010KT 3SM -RA BR SCT008 BKN025
     FM250400 05007KT 2SM -RA BR SCT004 OVC007=

USA.gov is the U.S. government's official web portal to all federal, state and local government web resources and services.